Weather at Folldal Grimsmoe Airfield

Public forecast

Using degrees Celsius for public forecast. Weather courtesy of forecast.io.

Closest aviation weather report (METAR) to Folldal Grimsmoe Airfield

Closest report is Røros Airport, 44.1 nm (81.6 km) NE.

2024/05/19 23:50 (retrieved 22 minutes ago)

ENRO 192350Z AUTO VRB01KT 9999 NCD M03/M04 Q1019

Closest aviation forecast (TAF) to Folldal Grimsmoe Airfield

Forecast is more than 6 hours old.

Closest forecast is Oslo Airport, Gardermoen, 119.0 nm (220.4 km) SSE.

2024/05/19 18:00 Correction (retrieved 6 hours ago)

TAF COR ENGM 191700Z 1918/2018 04010KT CAVOK BECMG 2012/2014 17008KT